Time;durP1;ratioP1;P1;durP2;ratioP2;P2;SDS_P1;SDS_P2;PMS_P1;PMS_P2;Temp;Humidity;BMP_temperature;BMP_pressure;BME280_temperature;BME280_humidity;BME280_pressure;Samples;Min_cycle;Max_cycle;Signal;HPM_P1;HPM_P2
2021/12/27 00:01:15;;;;;;;29.75;15.75;;;;;;;1.70;100.00;97300.63;5102525;28;20038;-75
2021/12/27 00:03:42;;;;;;;29.67;14.65;;;;;;;1.79;100.00;97292.88;5106661;28;20025;-74
2021/12/27 00:06:09;;;;;;;28.13;15.65;;;;;;;1.71;100.00;97296.84;5109786;28;20028;-75
2021/12/27 00:08:41;;;;;;;25.63;14.38;;;;;;;1.72;100.00;97293.09;5106118;28;20084;-76
2021/12/27 00:11:08;;;;;;;23.67;13.38;;;;;;;1.73;100.00;97300.09;5108671;28;20024;-78
2021/12/27 00:13:34;;;;;;;28.70;14.60;;;;;;;1.79;100.00;97292.88;5110549;28;20023;-75
2021/12/27 00:16:00;;;;;;;24.95;14.27;;;;;;;1.83;100.00;97289.41;5110464;28;20024;-77
2021/12/27 00:18:25;;;;;;;26.00;14.07;;;;;;;1.78;100.00;97286.69;5112826;28;20019;-76
2021/12/27 00:20:51;;;;;;;25.35;14.05;;;;;;;1.71;100.00;97287.97;5111028;28;20023;-76
2021/12/27 00:23:16;;;;;;;26.88;14.18;;;;;;;1.90;100.00;97290.03;5111783;28;20472;-76
2021/12/27 00:25:42;;;;;;;21.27;12.32;;;;;;;2.00;100.00;97298.22;5111137;28;20384;-74
2021/12/27 00:28:07;;;;;;;23.98;12.63;;;;;;;1.90;100.00;97291.91;5110731;28;20055;-76
2021/12/27 00:30:33;;;;;;;22.67;12.68;;;;;;;1.95;100.00;97303.53;5111669;28;20067;-77
2021/12/27 00:32:58;;;;;;;24.77;12.95;;;;;;;2.02;100.00;97290.66;5111936;28;20023;-76
2021/12/27 00:35:26;;;;;;;26.88;14.95;;;;;;;1.93;100.00;97289.50;5112147;28;20028;-75
2021/12/27 00:37:52;;;;;;;24.45;13.35;;;;;;;1.81;100.00;97291.56;5112026;28;20495;-76
2021/12/27 00:40:18;;;;;;;23.70;13.15;;;;;;;1.85;100.00;97295.34;5111642;28;20023;-74
2021/12/27 00:42:44;;;;;;;26.80;13.63;;;;;;;1.85;100.00;97303.44;5111236;28;20472;-75
2021/12/27 00:45:11;;;;;;;27.27;14.43;;;;;;;1.97;100.00;97297.91;5111361;28;20374;-77
2021/12/27 00:47:37;;;;;;;23.00;12.60;;;;;;;2.09;100.00;97309.34;5111405;28;20022;-77
2021/12/27 00:50:04;;;;;;;27.50;14.70;;;;;;;2.09;100.00;97310.16;5111295;28;20031;-76
2021/12/27 00:52:32;;;;;;;23.73;13.30;;;;;;;2.17;100.00;97311.53;5110602;28;20479;-73
2021/12/27 00:54:58;;;;;;;23.58;13.25;;;;;;;2.07;100.00;97290.69;5110991;28;20039;-79
2021/12/27 00:57:24;;;;;;;22.33;13.85;;;;;;;1.94;100.00;97301.91;5110244;28;20494;-76
2021/12/27 00:59:49;;;;;;;28.77;14.07;;;;;;;2.03;100.00;97310.38;5112664;28;20038;-79
2021/12/27 01:02:14;;;;;;;25.08;13.95;;;;;;;2.12;100.00;97306.94;5115779;28;20046;-77
2021/12/27 01:04:40;;;;;;;26.23;13.85;;;;;;;1.94;100.00;97312.69;5113828;28;20039;-77
2021/12/27 01:07:06;;;;;;;29.08;14.40;;;;;;;1.97;100.00;97311.41;5111906;28;20472;-77
2021/12/27 01:09:45;;;;;;;23.08;13.30;;;;;;;1.81;100.00;97306.94;5111503;28;20414;-76
2021/12/27 01:17:56;;;;;;;22.65;12.93;;;;;;;1.84;100.00;97328.81;5027589;28;20044;-75
2021/12/27 01:20:23;;;;;;;24.65;13.07;;;;;;;1.97;100.00;97331.06;5093434;28;20040;-76
2021/12/27 01:22:50;;;;;;;23.35;13.45;;;;;;;2.00;100.00;97327.88;5109773;28;20016;-75
2021/12/27 01:25:17;;;;;;;22.23;11.93;;;;;;;2.11;100.00;97331.44;5109676;28;20019;-76
2021/12/27 01:27:43;;;;;;;21.75;12.05;;;;;;;1.96;100.00;97332.16;5111080;28;20035;-76
2021/12/27 01:30:12;;;;;;;21.92;12.23;;;;;;;2.00;100.00;97327.88;5113680;28;20024;-77
2021/12/27 01:32:45;;;;;;;25.40;12.95;;;;;;;2.04;100.00;97336.25;5111037;28;20042;-76
2021/12/27 01:35:11;;;;;;;21.92;11.95;;;;;;;2.09;100.00;97337.13;5111448;28;20032;-75
2021/12/27 01:37:36;;;;;;;19.15;10.75;;;;;;;1.95;100.00;97333.19;5113484;28;20815;-75
2021/12/27 01:40:04;;;;;;;18.92;10.88;;;;;;;1.98;100.00;97348.06;5114779;28;20056;-74
2021/12/27 01:42:29;;;;;;;18.23;10.82;;;;;;;1.91;100.00;97336.69;5115273;28;20145;-75
2021/12/27 01:44:55;;;;;;;22.90;11.68;;;;;;;1.76;100.00;97331.94;5115501;28;20118;-75
2021/12/27 01:47:20;;;;;;;18.15;10.20;;;;;;;1.68;100.00;97328.91;5115731;28;20043;-76
2021/12/27 01:49:46;;;;;;;18.95;11.25;;;;;;;1.68;100.00;97329.72;5114675;28;20032;-75
2021/12/27 01:52:11;;;;;;;19.17;11.45;;;;;;;1.80;100.00;97327.66;5117658;28;20490;-84
2021/12/27 01:54:38;;;;;;;20.20;11.65;;;;;;;1.78;100.00;97332.50;5117111;28;20584;-75
2021/12/27 01:57:04;;;;;;;18.02;10.80;;;;;;;1.70;100.00;97322.19;5117026;28;20024;-78
2021/12/27 01:59:30;;;;;;;18.42;10.68;;;;;;;1.65;100.00;97322.13;5119833;28;20027;-81
2021/12/27 02:01:55;;;;;;;23.00;13.27;;;;;;;1.81;100.00;97329.31;5120074;28;20039;-78
2021/12/27 02:04:21;;;;;;;23.77;12.40;;;;;;;1.95;100.00;97327.81;5120102;28;20027;-78
2021/12/27 02:06:47;;;;;;;20.60;11.32;;;;;;;1.83;100.00;97327.16;5120592;28;20030;-82
2021/12/27 02:09:12;;;;;;;23.17;12.95;;;;;;;1.85;100.00;97319.63;5124827;28;20031;-81
2021/12/27 02:11:38;;;;;;;20.95;11.90;;;;;;;1.89;100.00;97328.84;5120703;28;21008;-84
2021/12/27 02:14:05;;;;;;;21.83;12.40;;;;;;;2.05;100.00;97327.91;5119028;28;20110;-84
2021/12/27 02:16:31;;;;;;;25.80;12.65;;;;;;;2.10;100.00;97319.84;5117364;28;20111;-81
2021/12/27 02:18:57;;;;;;;23.40;13.18;;;;;;;2.10;100.00;97316.34;5115808;28;20019;-81
2021/12/27 02:21:24;;;;;;;20.30;11.95;;;;;;;2.12;100.00;97325.81;5109133;28;20089;-81
2021/12/27 02:23:53;;;;;;;22.30;12.05;;;;;;;2.12;100.00;97325.81;5117426;28;20031;-81
2021/12/27 02:26:18;;;;;;;21.55;11.73;;;;;;;1.96;100.00;97320.53;5117223;28;20026;-81
2021/12/27 02:28:44;;;;;;;21.08;11.38;;;;;;;2.08;100.00;97324.69;5115663;28;20023;-81
2021/12/27 02:31:10;;;;;;;23.35;12.80;;;;;;;1.89;100.00;97336.94;5115680;28;20071;-83
2021/12/27 02:33:37;;;;;;;23.92;12.57;;;;;;;1.99;100.00;97337.03;5114448;28;20023;-81
2021/12/27 02:36:04;;;;;;;22.42;12.07;;;;;;;2.15;100.00;97338.78;5115464;28;20430;-80
2021/12/27 02:38:32;;;;;;;24.38;14.13;;;;;;;2.12;100.00;97333.09;5118280;28;20472;-82
2021/12/27 02:40:59;;;;;;;22.83;12.68;;;;;;;2.17;100.00;97339.34;5118375;28;20123;-84
2021/12/27 02:43:29;;;;;;;26.67;12.32;;;;;;;2.20;100.00;97329.09;5117040;28;20099;-82
2021/12/27 02:46:01;;;;;;;22.00;11.80;;;;;;;2.10;100.00;97329.81;5114485;28;20023;-78
2021/12/27 02:48:30;;;;;;;24.25;13.10;;;;;;;1.96;100.00;97328.63;5119922;28;20103;-82
2021/12/27 02:50:56;;;;;;;22.83;11.57;;;;;;;1.88;100.00;97319.09;5124743;28;20024;-84
2021/12/27 02:53:24;;;;;;;24.52;12.77;;;;;;;1.94;100.00;97328.09;5124730;28;20039;-86
2021/12/27 02:55:52;;;;;;;23.08;12.57;;;;;;;1.97;100.00;97316.78;5123448;28;20035;-83
2021/12/27 02:58:17;;;;;;;25.95;13.90;;;;;;;2.01;100.00;97324.09;5125499;28;20028;-83
2021/12/27 03:01:08;;;;;;;22.52;13.10;;;;;;;2.00;100.00;97317.09;5124477;28;20040;-83
2021/12/27 03:03:35;;;;;;;27.75;12.70;;;;;;;2.00;100.00;97325.19;5126230;28;20047;-84
2021/12/27 03:06:01;;;;;;;23.75;12.05;;;;;;;2.09;100.00;97326.34;5126476;28;20035;-84
2021/12/27 03:08:27;;;;;;;24.17;13.38;;;;;;;2.08;100.00;97322.00;5125504;28;20495;-82
2021/12/27 03:10:58;;;;;;;22.15;12.30;;;;;;;2.09;100.00;97314.72;5111587;28;20028;-84
2021/12/27 03:13:29;;;;;;;24.50;13.35;;;;;;;2.12;100.00;97317.72;5109196;28;20032;-80
2021/12/27 03:16:03;;;;;;;29.13;14.30;;;;;;;2.08;100.00;97316.59;5110384;28;20020;-84
2021/12/27 03:18:29;;;;;;;24.75;13.48;;;;;;;2.10;100.00;97313.63;5108034;28;20022;-87
2021/12/27 03:20:55;;;;;;;23.50;13.13;;;;;;;2.09;100.00;97312.03;5109551;28;20063;-82
2021/12/27 03:23:21;;;;;;;23.20;13.23;;;;;;;2.13;100.00;97305.84;5106156;28;20115;-84
2021/12/27 03:25:47;;;;;;;24.17;12.75;;;;;;;2.15;100.00;97303.72;5107112;28;20035;-83
2021/12/27 03:28:13;;;;;;;21.88;11.95;;;;;;;2.17;100.00;97306.16;5107817;28;20031;-84
2021/12/27 03:30:39;;;;;;;21.90;12.60;;;;;;;2.23;100.00;97309.69;5107386;28;20019;-82
2021/12/27 03:33:05;;;;;;;24.25;13.43;;;;;;;2.28;100.00;97307.88;5108502;28;20020;-82
2021/12/27 03:35:36;;;;;;;24.10;12.52;;;;;;;2.31;100.00;97309.22;5109725;28;20103;-82
2021/12/27 03:38:05;;;;;;;22.83;12.30;;;;;;;2.32;100.00;97305.47;5109156;28;20020;-85
2021/12/27 03:40:30;;;;;;;23.77;13.65;;;;;;;2.30;100.00;97321.09;5109042;28;20024;-87
2021/12/27 03:42:56;;;;;;;22.67;12.98;;;;;;;2.24;100.00;97304.06;5109069;28;20035;-81
2021/12/27 03:45:33;;;;;;;25.80;14.48;;;;;;;2.33;100.00;97304.38;5109292;28;20046;-83
2021/12/27 03:47:59;;;;;;;22.00;11.82;;;;;;;2.28;100.00;97309.75;5109462;28;20047;-82
2021/12/27 03:50:25;;;;;;;24.55;12.85;;;;;;;2.15;100.00;97306.44;5108889;28;20028;-84
2021/12/27 03:52:52;;;;;;;25.75;12.88;;;;;;;2.15;100.00;97303.72;5106955;28;20035;-80
2021/12/27 03:55:18;;;;;;;23.42;12.65;;;;;;;2.12;100.00;97298.84;5107304;28;20095;-79
2021/12/27 03:57:51;;;;;;;24.15;13.10;;;;;;;2.11;100.00;97313.41;5108188;28;20027;-84
2021/12/27 04:02:47;;;;;;;25.60;13.55;;;;;;;2.30;100.00;97311.13;5113194;28;20039;-84
2021/12/27 04:05:12;;;;;;;25.73;13.60;;;;;;;2.33;100.00;97312.47;5108285;28;20020;-80
2021/12/27 04:07:39;;;;;;;24.67;13.68;;;;;;;2.43;100.00;97309.84;5108648;28;20039;-83
2021/12/27 04:10:07;;;;;;;24.15;14.10;;;;;;;2.46;100.00;97310.16;5113032;28;20044;-85
2021/12/27 04:12:34;;;;;;;28.85;13.13;;;;;;;2.41;100.00;97310.09;5111732;28;20020;-81
2021/12/27 04:14:59;;;;;;;27.27;15.02;;;;;;;2.34;100.00;97304.13;5113104;28;20051;-83
2021/12/27 04:17:25;;;;;;;26.17;13.75;;;;;;;2.41;100.00;97312.00;5110760;28;20020;-82
2021/12/27 04:19:50;;;;;;;26.73;14.80;;;;;;;2.34;100.00;97312.22;5109660;28;20080;-80
2021/12/27 04:22:16;;;;;;;29.95;14.95;;;;;;;2.39;100.00;97297.94;5109302;28;20038;-82
2021/12/27 04:24:41;;;;;;;25.10;13.75;;;;;;;2.50;100.00;97305.06;5108668;28;20485;-82
2021/12/27 04:27:07;;;;;;;26.77;13.00;;;;;;;2.44;100.00;97301.53;5109887;28;20024;-79
2021/12/27 04:29:32;;;;;;;25.70;13.15;;;;;;;2.44;100.00;97300.69;5110880;28;20032;-87
2021/12/27 04:31:58;;;;;;;24.42;12.73;;;;;;;2.44;100.00;97308.78;5109379;28;20050;-83
2021/12/27 04:34:23;;;;;;;24.80;13.15;;;;;;;2.43;100.00;97309.84;5109436;28;20020;-86
2021/12/27 04:36:48;;;;;;;28.63;15.20;;;;;;;2.37;100.00;97310.91;5109985;28;20028;-83
2021/12/27 04:39:14;;;;;;;26.73;13.98;;;;;;;2.43;100.00;97304.47;5111725;28;20020;-83
2021/12/27 04:41:39;;;;;;;26.92;15.07;;;;;;;2.41;100.00;97307.41;5110154;28;20047;-84
2021/12/27 04:44:05;;;;;;;25.63;13.77;;;;;;;2.37;100.00;97309.00;5110715;28;20054;-86
2021/12/27 04:46:31;;;;;;;25.15;13.45;;;;;;;2.41;100.00;97301.22;5108000;28;20027;-83
2021/12/27 04:48:56;;;;;;;25.63;14.60;;;;;;;2.38;100.00;97309.84;5111233;28;20023;-85
2021/12/27 04:51:22;;;;;;;30.48;16.73;;;;;;;2.33;100.00;97312.47;5109157;28;20062;-84
2021/12/27 04:53:49;;;;;;;27.60;15.13;;;;;;;2.30;100.00;97313.81;5110370;28;20040;-83
2021/12/27 04:56:15;;;;;;;31.63;15.00;;;;;;;2.34;100.00;97309.53;5110616;28;20028;-85
2021/12/27 04:58:43;;;;;;;31.80;16.77;;;;;;;2.36;100.00;97303.88;5111424;28;20032;-85
2021/12/27 05:01:09;;;;;;;33.42;16.75;;;;;;;2.35;100.00;97307.66;5110790;28;20032;-83
2021/12/27 05:03:34;;;;;;;32.00;16.60;;;;;;;2.33;100.00;97302.50;5111198;28;20050;-82
2021/12/27 05:06:00;;;;;;;32.08;14.40;;;;;;;2.36;100.00;97314.66;5110356;28;20028;-82
2021/12/27 05:08:25;;;;;;;24.23;13.75;;;;;;;2.34;100.00;97316.81;5111519;28;20028;-85
2021/12/27 05:10:50;;;;;;;23.65;13.23;;;;;;;2.22;100.00;97310.78;5105281;28;20040;-81
2021/12/27 05:13:17;;;;;;;23.98;12.88;;;;;;;2.28;100.00;97312.44;5110798;28;20027;-79
2021/12/27 05:15:43;;;;;;;24.92;14.25;;;;;;;2.46;100.00;97317.44;5116026;28;20080;-81
2021/12/27 05:18:09;;;;;;;24.50;13.70;;;;;;;2.36;100.00;97320.06;5114908;28;20024;-83
2021/12/27 05:20:37;;;;;;;23.52;13.18;;;;;;;2.32;100.00;97322.44;5116132;28;20020;-82
2021/12/27 05:23:04;;;;;;;23.05;12.82;;;;;;;2.28;100.00;97318.66;5115978;28;20030;-85
2021/12/27 05:25:29;;;;;;;20.08;12.00;;;;;;;2.32;100.00;97316.25;5115542;28;20016;-82
2021/12/27 05:27:54;;;;;;;21.98;11.70;;;;;;;2.29;100.00;97319.47;5118212;28;20013;-84
2021/12/27 05:30:20;;;;;;;22.63;12.55;;;;;;;2.35;100.00;97326.53;5117819;28;20028;-86
2021/12/27 05:32:46;;;;;;;22.08;11.25;;;;;;;2.42;100.00;97329.81;5116905;28;20056;-84
2021/12/27 05:35:13;;;;;;;20.73;11.05;;;;;;;2.30;100.00;97326.47;5116632;28;20040;-83
2021/12/27 05:37:39;;;;;;;21.65;12.57;;;;;;;2.19;100.00;97330.19;5116225;28;20024;-85
2021/12/27 05:40:08;;;;;;;21.65;11.93;;;;;;;2.22;100.00;97335.06;5116965;28;20118;-87
2021/12/27 05:42:35;;;;;;;22.08;11.63;;;;;;;2.23;100.00;97332.09;5117312;28;20040;-85
2021/12/27 05:45:02;;;;;;;25.00;12.35;;;;;;;2.28;100.00;97323.25;5118319;28;20020;-86
2021/12/27 05:47:28;;;;;;;23.90;12.02;;;;;;;2.29;100.00;97333.75;5115377;28;20032;-86
2021/12/27 05:49:53;;;;;;;28.20;13.45;;;;;;;2.26;100.00;97333.47;5115867;28;20028;-87
2021/12/27 05:52:18;;;;;;;27.30;14.20;;;;;;;2.21;100.00;97330.72;5117900;28;20077;-84
2021/12/27 05:54:44;;;;;;;32.75;16.30;;;;;;;2.24;100.00;97338.31;5118155;28;20056;-85
2021/12/27 05:57:09;;;;;;;31.02;15.50;;;;;;;2.29;100.00;97349.16;5115793;28;20049;-84
2021/12/27 05:59:35;;;;;;;29.45;15.43;;;;;;;2.31;100.00;97347.00;5116034;28;20016;-85
2021/12/27 06:02:00;;;;;;;24.60;13.48;;;;;;;2.39;100.00;97354.63;5116518;28;20047;-83
2021/12/27 06:04:26;;;;;;;25.05;14.43;;;;;;;2.46;100.00;97347.94;5116142;28;20028;-82
2021/12/27 06:06:51;;;;;;;25.48;12.52;;;;;;;2.41;100.00;97352.50;5116358;28;20024;-82
2021/12/27 06:09:16;;;;;;;22.60;12.75;;;;;;;2.43;100.00;97342.25;5111680;28;20016;-82
2021/12/27 06:11:42;;;;;;;19.23;10.52;;;;;;;2.43;100.00;97342.25;5109189;28;20032;-80
2021/12/27 06:14:07;;;;;;;21.42;11.90;;;;;;;2.37;100.00;97348.66;5109169;28;20020;-83
2021/12/27 06:16:33;;;;;;;21.88;11.32;;;;;;;2.39;100.00;97347.34;5108885;28;20039;-79
2021/12/27 06:18:58;;;;;;;19.63;11.88;;;;;;;2.38;100.00;97347.59;5113007;28;20032;-81
2021/12/27 06:21:24;;;;;;;20.75;11.52;;;;;;;2.41;100.00;97349.78;5115672;28;20034;-86
2021/12/27 06:23:49;;;;;;;22.27;11.70;;;;;;;2.48;100.00;97351.19;5113910;28;20028;-84
2021/12/27 06:26:15;;;;;;;21.60;11.32;;;;;;;2.46;100.00;97347.94;5115452;28;20054;-84
2021/12/27 06:28:40;;;;;;;20.80;11.63;;;;;;;2.54;100.00;97343.94;5112876;28;20032;-85
2021/12/27 06:31:06;;;;;;;20.00;10.98;;;;;;;2.58;100.00;97345.03;5109569;28;20031;-84
2021/12/27 06:33:31;;;;;;;20.45;10.77;;;;;;;2.57;100.00;97346.09;5104122;28;20028;-82
2021/12/27 06:35:57;;;;;;;17.45;11.13;;;;;;;2.60;100.00;97346.41;5111451;28;20028;-87
2021/12/27 06:38:23;;;;;;;16.45;9.93;;;;;;;2.58;100.00;97353.13;5115180;28;20039;-87
2021/12/27 06:40:51;;;;;;;18.23;9.32;;;;;;;2.58;100.00;97363.94;5115197;28;20032;-85
2021/12/27 06:43:17;;;;;;;15.68;9.55;;;;;;;2.51;100.00;97360.63;5114805;28;20020;-82
2021/12/27 06:45:43;;;;;;;19.30;10.15;;;;;;;2.51;100.00;97356.06;5114901;28;20044;-82
2021/12/27 06:48:09;;;;;;;16.45;9.60;;;;;;;2.49;100.00;97347.41;5114653;28;20024;-84
2021/12/27 06:50:34;;;;;;;16.25;9.10;;;;;;;2.56;100.00;97350.72;5114075;28;20401;-85
2021/12/27 06:53:00;;;;;;;16.75;9.48;;;;;;;2.55;100.00;97351.78;5114236;28;20087;-85
2021/12/27 06:55:26;;;;;;;17.77;9.40;;;;;;;2.51;100.00;97357.94;5114275;28;20096;-85
2021/12/27 06:57:51;;;;;;;15.68;9.27;;;;;;;2.61;100.00;97349.91;5113867;28;20467;-85
2021/12/27 07:00:17;;;;;;;17.77;10.10;;;;;;;2.45;100.00;97340.09;5114497;28;20028;-80
2021/12/27 07:02:44;;;;;;;20.58;10.52;;;;;;;2.42;100.00;97346.00;5114814;28;20016;-80
2021/12/27 07:05:11;;;;;;;20.60;10.68;;;;;;;2.38;100.00;97344.91;5114606;28;20020;-83
2021/12/27 07:07:37;;;;;;;14.43;8.52;;;;;;;2.32;100.00;97335.16;5115767;28;20024;-80
2021/12/27 07:10:05;;;;;;;15.38;8.88;;;;;;;2.21;100.00;97333.44;5114993;28;20031;-83
2021/12/27 07:12:31;;;;;;;18.25;10.27;;;;;;;2.21;100.00;97334.25;5114433;28;20027;-84
2021/12/27 07:14:56;;;;;;;16.05;9.20;;;;;;;2.11;100.00;97337.66;5111115;28;20016;-82
2021/12/27 07:17:22;;;;;;;18.33;8.82;;;;;;;2.24;100.00;97333.72;5112664;28;20024;-85
2021/12/27 07:19:47;;;;;;;16.48;9.05;;;;;;;2.26;100.00;97336.16;5112785;28;20024;-82
2021/12/27 07:22:13;;;;;;;19.40;10.43;;;;;;;2.24;100.00;97338.31;5112374;28;20027;-83
2021/12/27 07:24:38;;;;;;;20.20;10.45;;;;;;;2.34;100.00;97344.59;5110184;28;20028;-80
2021/12/27 07:27:04;;;;;;;22.63;11.73;;;;;;;2.23;100.00;97344.75;5113710;28;20019;-83
2021/12/27 07:29:29;;;;;;;21.10;12.13;;;;;;;2.18;100.00;97334.75;5113553;28;20541;-84
2021/12/27 07:31:55;;;;;;;23.15;12.07;;;;;;;2.23;100.00;97345.59;5107017;28;20016;-86
2021/12/27 07:34:24;;;;;;;21.40;11.50;;;;;;;2.34;100.00;97352.69;5104987;28;20518;-85
2021/12/27 07:36:51;;;;;;;20.42;11.43;;;;;;;2.57;100.00;97349.63;5106464;28;20039;-84
2021/12/27 07:39:18;;;;;;;21.70;12.43;;;;;;;2.52;100.00;97346.91;5104298;28;20035;-79
2021/12/27 07:41:43;;;;;;;20.73;11.63;;;;;;;2.58;100.00;97355.84;5105021;28;20035;-84
2021/12/27 07:44:09;;;;;;;20.20;11.27;;;;;;;2.51;100.00;97355.25;5098587;28;20034;-84
2021/12/27 07:46:35;;;;;;;22.48;11.98;;;;;;;2.53;100.00;97350.41;5106077;28;20465;-82
2021/12/27 07:49:02;;;;;;;21.13;11.50;;;;;;;2.59;100.00;97357.47;5097505;28;20020;-83
2021/12/27 07:51:28;;;;;;;20.40;11.68;;;;;;;2.64;100.00;97357.50;5097060;28;20142;-82
2021/12/27 07:53:54;;;;;;;20.73;11.32;;;;;;;2.61;100.00;97352.63;5094544;28;20058;-80
2021/12/27 07:56:19;;;;;;;18.98;9.30;;;;;;;2.76;100.00;97363.53;5095124;28;20492;-88
2021/12/27 07:58:45;;;;;;;16.77;10.07;;;;;;;2.81;100.00;97365.44;5096078;28;20035;-82
2021/12/27 08:01:10;;;;;;;16.63;8.93;;;;;;;2.81;100.00;97366.28;5099497;28;20022;-84
2021/12/27 08:03:36;;;;;;;14.77;8.40;;;;;;;2.49;100.00;97362.78;5112810;28;20033;-82
2021/12/27 08:06:01;;;;;;;15.05;9.73;;;;;;;2.51;100.00;97361.47;5114414;28;20026;-83
2021/12/27 08:08:27;;;;;;;17.40;8.73;;;;;;;2.66;100.00;97363.47;5113321;28;20035;-82
2021/12/27 08:10:52;;;;;;;16.52;8.85;;;;;;;2.81;100.00;97366.28;5116132;28;20020;-83
2021/12/27 08:13:18;;;;;;;15.63;8.20;;;;;;;2.81;100.00;97366.28;5114961;28;20034;-80
2021/12/27 08:15:43;;;;;;;15.40;8.65;;;;;;;2.67;100.00;97365.91;5113168;28;20056;-81
2021/12/27 08:18:08;;;;;;;14.55;8.07;;;;;;;2.67;100.00;97360.50;5113167;28;20092;-82
2021/12/27 08:20:34;;;;;;;14.68;8.20;;;;;;;2.65;100.00;97367.22;5114388;28;20031;-84
2021/12/27 08:22:59;;;;;;;13.68;7.85;;;;;;;2.62;100.00;97356.97;5111028;28;20379;-80
2021/12/27 08:25:24;;;;;;;15.63;9.05;;;;;;;2.72;100.00;97357.81;5117223;28;20036;-84
2021/12/27 08:27:50;;;;;;;15.68;9.40;;;;;;;2.84;100.00;97364.94;5123631;28;20024;-86
2021/12/27 08:30:16;;;;;;;18.75;8.50;;;;;;;3.00;100.00;97356.66;5128598;28;20061;-83
2021/12/27 08:32:45;;;;;;;15.55;8.45;;;;;;;3.03;100.00;97363.44;5126347;28;20055;-86
2021/12/27 08:35:11;;;;;;;15.35;8.30;;;;;;;3.13;100.00;97358.88;5125916;28;20030;-84
2021/12/27 08:37:37;;;;;;;15.32;8.70;;;;;;;3.22;100.00;97351.09;5125518;28;20085;-86
2021/12/27 08:40:07;;;;;;;16.20;8.57;;;;;;;3.20;100.00;97351.34;5126907;28;20034;-80
2021/12/27 08:42:33;;;;;;;17.52;9.57;;;;;;;3.20;100.00;97353.25;5121619;28;20031;-79
2021/12/27 08:44:58;;;;;;;17.05;9.82;;;;;;;3.28;100.00;97350.03;5121590;28;20038;-83
2021/12/27 08:47:24;;;;;;;19.50;9.63;;;;;;;3.20;100.00;97348.66;5123439;28;20034;-87
2021/12/27 08:49:50;;;;;;;14.52;8.43;;;;;;;3.31;100.00;97349.53;5124336;28;20772;-84
2021/12/27 08:52:15;;;;;;;17.27;9.45;;;;;;;3.38;100.00;97357.38;5117993;28;20042;-78
2021/12/27 08:54:40;;;;;;;16.80;10.05;;;;;;;3.46;100.00;97356.88;5114509;28;20044;-74
2021/12/27 08:57:09;;;;;;;20.02;9.43;;;;;;;3.42;100.00;97355.75;5115653;28;20106;-77
2021/12/27 08:59:37;;;;;;;16.95;8.50;;;;;;;3.41;100.00;97359.56;5114964;28;20024;-77
2021/12/27 09:02:03;;;;;;;15.32;9.15;;;;;;;3.48;100.00;97360.94;5116415;28;20031;-76
2021/12/27 09:04:29;;;;;;;17.48;10.13;;;;;;;3.51;100.00;97360.41;5115298;28;20494;-75
2021/12/27 09:06:54;;;;;;;17.63;9.80;;;;;;;3.64;100.00;97367.19;5115023;28;20027;-77
2021/12/27 09:09:21;;;;;;;18.02;9.73;;;;;;;3.74;100.00;97367.25;5115130;28;20437;-76
2021/12/27 09:11:46;;;;;;;14.27;7.15;;;;;;;3.68;100.00;97365.59;5115311;28;20120;-77
2021/12/27 09:14:13;;;;;;;12.18;6.28;;;;;;;3.60;100.00;97376.94;5114760;28;20036;-76
2021/12/27 09:16:39;;;;;;;9.88;5.82;;;;;;;3.59;100.00;97378.81;5114733;28;20040;-80
2021/12/27 09:19:04;;;;;;;8.98;5.50;;;;;;;3.63;100.00;97374.50;5114812;28;20031;-76
2021/12/27 09:21:30;;;;;;;11.80;5.78;;;;;;;3.58;100.00;97377.19;5114871;28;20510;-76
2021/12/27 09:23:55;;;;;;;11.88;5.72;;;;;;;3.47;100.00;97372.00;5115794;28;20032;-79
2021/12/27 09:26:21;;;;;;;9.98;5.78;;;;;;;3.60;100.00;97374.25;5114813;28;20024;-76
2021/12/27 09:28:46;;;;;;;14.93;7.53;;;;;;;3.64;100.00;97372.59;5114775;28;20480;-75
2021/12/27 09:31:12;;;;;;;11.52;6.00;;;;;;;3.69;100.00;97378.06;5114762;28;20161;-76
2021/12/27 09:33:37;;;;;;;11.20;5.90;;;;;;;3.84;100.00;97369.97;5115482;28;20042;-79
2021/12/27 09:36:03;;;;;;;14.15;7.35;;;;;;;3.59;100.00;97376.13;5115651;28;20157;-75
2021/12/27 09:38:29;;;;;;;10.70;6.63;;;;;;;3.64;100.00;97380.72;5118913;27;20034;-76
2021/12/27 09:40:55;;;;;;;12.50;7.43;;;;;;;3.74;100.00;97380.75;5114081;28;20035;-79
2021/12/27 09:43:21;;;;;;;11.40;6.60;;;;;;;3.90;100.00;97384.31;5112528;28;20076;-74
2021/12/27 09:45:46;;;;;;;14.00;7.47;;;;;;;3.93;100.00;97384.59;5114639;28;20027;-75
2021/12/27 09:48:13;;;;;;;13.35;7.30;;;;;;;3.96;100.00;97384.06;5112425;28;20027;-75
2021/12/27 09:50:49;;;;;;;15.68;8.27;;;;;;;4.00;100.00;97378.94;5115763;28;20034;-79
2021/12/27 09:53:15;;;;;;;14.23;8.35;;;;;;;4.02;100.00;97372.16;5117098;28;20044;-79
2021/12/27 09:55:40;;;;;;;12.07;7.30;;;;;;;3.93;100.00;97367.56;5115657;28;20430;-75
2021/12/27 09:58:06;;;;;;;14.43;7.43;;;;;;;4.10;100.00;97368.13;5114254;28;20020;-76
2021/12/27 10:00:34;;;;;;;12.50;7.40;;;;;;;4.07;100.00;97369.47;5106570;28;20020;-76
2021/12/27 10:03:00;;;;;;;12.30;7.30;;;;;;;4.31;100.00;97377.91;5094975;28;20086;-77
2021/12/27 10:05:28;;;;;;;15.13;7.68;;;;;;;4.31;100.00;97370.59;5102512;28;20442;-78
2021/12/27 10:07:55;;;;;;;12.10;7.80;;;;;;;4.74;100.00;97374.66;5111004;28;20073;-75
2021/12/27 10:10:23;;;;;;;11.90;7.05;;;;;;;4.73;100.00;97377.66;5113908;28;20040;-76
2021/12/27 10:12:49;;;;;;;11.13;7.47;;;;;;;4.74;100.00;97374.66;5115661;28;20015;-77
2021/12/27 10:15:20;;;;;;;12.32;6.85;;;;;;;4.51;100.00;97371.69;5105463;28;20026;-75
2021/12/27 10:17:48;;;;;;;9.65;6.55;;;;;;;4.53;100.00;97361.41;5111955;28;20027;-76
2021/12/27 10:20:13;;;;;;;11.55;5.32;;;;;;;4.69;100.00;97360.31;5111205;28;20029;-75
2021/12/27 10:22:51;;;;;;;12.07;6.28;;;;;;;4.12;100.00;97357.84;5112330;28;20499;-77
2021/12/27 10:25:25;;;;;;;10.18;5.78;;;;;;;4.53;100.00;97353.28;5111788;28;20071;-75
2021/12/27 10:27:53;;;;;;;13.32;5.88;;;;;;;4.60;100.00;97351.94;5111973;28;20638;-78
2021/12/27 10:30:24;;;;;;;10.55;6.47;;;;;;;4.69;100.00;97355.72;5108437;28;20106;-76
2021/12/27 10:33:15;;;;;;;11.27;6.70;;;;;;;4.63;100.00;97347.84;5109024;28;20062;-76
2021/12/27 10:35:42;;;;;;;10.93;6.95;;;;;;;4.49;100.00;97352.19;5111609;28;20115;-77
2021/12/27 10:38:13;;;;;;;10.98;6.30;;;;;;;4.75;100.00;97351.09;5104842;28;20024;-77
2021/12/27 10:40:38;;;;;;;11.00;6.70;;;;;;;4.96;99.66;97349.97;5104628;28;20050;-76
2021/12/27 10:43:04;;;;;;;16.73;7.93;;;;;;;4.69;100.00;97342.16;5111201;28;20031;-77
2021/12/27 10:45:29;;;;;;;11.32;6.60;;;;;;;4.85;99.57;97337.53;5110084;28;20483;-78
2021/12/27 10:48:00;;;;;;;12.20;6.93;;;;;;;4.87;99.55;97335.34;5106908;28;20012;-79
2021/12/27 10:50:35;;;;;;;14.40;6.75;;;;;;;4.97;98.98;97329.09;5105743;28;20101;-74
2021/12/27 10:53:05;;;;;;;11.23;6.83;;;;;;;5.40;100.00;97318.38;5112526;28;20027;-76
2021/12/27 10:55:39;;;;;;;18.30;9.05;;;;;;;4.96;99.89;97322.88;5112543;28;20023;-75
2021/12/27 10:58:08;;;;;;;15.32;9.38;;;;;;;4.37;100.00;97319.16;5110409;28;20115;-75
2021/12/27 11:00:34;;;;;;;16.38;8.55;;;;;;;4.83;100.00;97328.84;5111642;28;20482;-76
2021/12/27 11:03:02;;;;;;;16.92;9.07;;;;;;;5.17;100.00;97324.41;5112721;28;20051;-77
2021/12/27 11:05:29;;;;;;;15.32;8.25;;;;;;;4.72;100.00;97317.25;5110825;28;20742;-75
2021/12/27 11:08:01;;;;;;;12.60;7.22;;;;;;;4.65;100.00;97316.69;5110169;28;20064;-75
2021/12/27 11:10:30;;;;;;;13.40;7.70;;;;;;;4.86;100.00;97321.00;5108547;28;20494;-76
2021/12/27 11:12:59;;;;;;;11.38;7.15;;;;;;;4.79;100.00;97312.31;5111038;28;20049;-76
2021/12/27 11:15:30;;;;;;;13.98;7.35;;;;;;;4.94;100.00;97311.50;5109764;28;20026;-76
2021/12/27 11:17:56;;;;;;;14.40;7.65;;;;;;;5.17;100.00;97310.88;5103577;28;20539;-74
2021/12/27 11:20:22;;;;;;;14.35;7.88;;;;;;;5.23;99.80;97315.19;5108954;28;20027;-79
2021/12/27 11:22:54;;;;;;;15.40;8.75;;;;;;;5.24;98.55;97319.53;5100541;27;20089;-76
2021/12/27 11:25:34;;;;;;;15.70;7.93;;;;;;;5.08;99.22;97312.53;5109008;28;20031;-75